sensor_id;sensor_type;location;lat;lon;timestamp;temperature;humidity
37642;DHT22;23486;51.956;5.888;2023-02-22T00:00:18;8.20;99.90
37642;DHT22;23486;51.956;5.888;2023-02-22T00:02:50;8.10;99.90
37642;DHT22;23486;51.956;5.888;2023-02-22T00:05:17;8.10;99.90
37642;DHT22;23486;51.956;5.888;2023-02-22T00:07:48;8.10;99.90
37642;DHT22;23486;51.956;5.888;2023-02-22T00:10:17;8.10;99.90
37642;DHT22;23486;51.956;5.888;2023-02-22T00:12:47;8.10;99.90
37642;DHT22;23486;51.956;5.888;2023-02-22T00:15:19;8.10;99.90
37642;DHT22;23486;51.956;5.888;2023-02-22T00:17:45;8.10;99.90
37642;DHT22;23486;51.956;5.888;2023-02-22T00:20:12;8.10;99.90
37642;DHT22;23486;51.956;5.888;2023-02-22T00:22:43;8.10;99.90
37642;DHT22;23486;51.956;5.888;2023-02-22T00:25:15;8.00;99.90
37642;DHT22;23486;51.956;5.888;2023-02-22T00:27:44;7.90;99.90
37642;DHT22;23486;51.956;5.888;2023-02-22T00:30:17;8.10;99.90
37642;DHT22;23486;51.956;5.888;2023-02-22T00:32:44;8.00;99.90
37642;DHT22;23486;51.956;5.888;2023-02-22T00:35:11;8.00;99.90
37642;DHT22;23486;51.956;5.888;2023-02-22T00:37:37;8.00;99.90
37642;DHT22;23486;51.956;5.888;2023-02-22T00:40:10;8.00;99.90
37642;DHT22;23486;51.956;5.888;2023-02-22T00:42:36;8.00;99.90
37642;DHT22;23486;51.956;5.888;2023-02-22T00:45:05;8.00;99.90
37642;DHT22;23486;51.956;5.888;2023-02-22T00:47:31;8.00;99.90
37642;DHT22;23486;51.956;5.888;2023-02-22T00:49:59;8.00;99.90
37642;DHT22;23486;51.956;5.888;2023-02-22T00:52:25;8.00;99.90
37642;DHT22;23486;51.956;5.888;2023-02-22T00:54:53;8.00;99.90
37642;DHT22;23486;51.956;5.888;2023-02-22T00:57:19;7.90;99.90
37642;DHT22;23486;51.956;5.888;2023-02-22T00:59:45;8.00;99.90
37642;DHT22;23486;51.956;5.888;2023-02-22T01:02:13;7.90;99.90
37642;DHT22;23486;51.956;5.888;2023-02-22T01:04:39;7.90;99.90
37642;DHT22;23486;51.956;5.888;2023-02-22T01:07:05;7.90;99.90
37642;DHT22;23486;51.956;5.888;2023-02-22T01:09:31;7.90;99.90
37642;DHT22;23486;51.956;5.888;2023-02-22T01:11:57;7.90;99.90
37642;DHT22;23486;51.956;5.888;2023-02-22T01:14:24;7.90;99.90
37642;DHT22;23486;51.956;5.888;2023-02-22T01:16:52;7.90;99.90
37642;DHT22;23486;51.956;5.888;2023-02-22T01:19:19;7.90;99.90
37642;DHT22;23486;51.956;5.888;2023-02-22T01:21:48;7.90;99.90
37642;DHT22;23486;51.956;5.888;2023-02-22T01:24:15;8.00;99.90
37642;DHT22;23486;51.956;5.888;2023-02-22T01:26:42;7.90;99.90
37642;DHT22;23486;51.956;5.888;2023-02-22T01:29:11;8.00;99.90
37642;DHT22;23486;51.956;5.888;2023-02-22T01:31:42;8.00;99.90
37642;DHT22;23486;51.956;5.888;2023-02-22T01:34:09;7.90;99.90
37642;DHT22;23486;51.956;5.888;2023-02-22T01:36:35;7.90;99.90
37642;DHT22;23486;51.956;5.888;2023-02-22T01:39:01;7.90;99.90
37642;DHT22;23486;51.956;5.888;2023-02-22T01:41:27;7.90;99.90
37642;DHT22;23486;51.956;5.888;2023-02-22T01:43:52;7.90;99.90
37642;DHT22;23486;51.956;5.888;2023-02-22T01:46:25;7.80;99.90
37642;DHT22;23486;51.956;5.888;2023-02-22T01:49:00;7.80;99.90
37642;DHT22;23486;51.956;5.888;2023-02-22T01:51:31;7.90;99.90
37642;DHT22;23486;51.956;5.888;2023-02-22T01:54:32;7.80;99.90
37642;DHT22;23486;51.956;5.888;2023-02-22T01:57:05;7.80;99.90
37642;DHT22;23486;51.956;5.888;2023-02-22T01:59:35;7.90;99.90
37642;DHT22;23486;51.956;5.888;2023-02-22T02:02:02;7.80;99.90
37642;DHT22;23486;51.956;5.888;2023-02-22T02:04:29;7.80;99.90
37642;DHT22;23486;51.956;5.888;2023-02-22T02:06:59;7.80;99.90
37642;DHT22;23486;51.956;5.888;2023-02-22T02:12:11;7.70;99.90
37642;DHT22;23486;51.956;5.888;2023-02-22T02:14:40;7.70;99.90
37642;DHT22;23486;51.956;5.888;2023-02-22T02:17:07;7.60;99.90
37642;DHT22;23486;51.956;5.888;2023-02-22T02:27:21;7.50;99.90
37642;DHT22;23486;51.956;5.888;2023-02-22T02:30:09;7.50;99.90
37642;DHT22;23486;51.956;5.888;2023-02-22T02:32:52;7.50;99.90
37642;DHT22;23486;51.956;5.888;2023-02-22T02:35:28;7.50;99.90
37642;DHT22;23486;51.956;5.888;2023-02-22T02:38:20;7.40;99.90
37642;DHT22;23486;51.956;5.888;2023-02-22T02:40:54;7.40;99.90
37642;DHT22;23486;51.956;5.888;2023-02-22T02:43:45;7.30;99.90
37642;DHT22;23486;51.956;5.888;2023-02-22T02:46:20;7.40;99.90
37642;DHT22;23486;51.956;5.888;2023-02-22T02:48:51;7.40;99.90
37642;DHT22;23486;51.956;5.888;2023-02-22T02:51:21;7.30;99.90
37642;DHT22;23486;51.956;5.888;2023-02-22T02:53:50;7.30;99.90
37642;DHT22;23486;51.956;5.888;2023-02-22T02:56:17;7.30;99.90
37642;DHT22;23486;51.956;5.888;2023-02-22T02:58:48;7.30;99.90
37642;DHT22;23486;51.956;5.888;2023-02-22T03:01:40;7.30;99.90
37642;DHT22;23486;51.956;5.888;2023-02-22T03:17:53;7.20;99.90
37642;DHT22;23486;51.956;5.888;2023-02-22T03:20:45;7.30;99.90
37642;DHT22;23486;51.956;5.888;2023-02-22T03:23:26;7.20;99.90
37642;DHT22;23486;51.956;5.888;2023-02-22T03:25:57;7.20;99.90
37642;DHT22;23486;51.956;5.888;2023-02-22T03:28:25;7.20;99.90
37642;DHT22;23486;51.956;5.888;2023-02-22T03:31:00;7.20;99.90
37642;DHT22;23486;51.956;5.888;2023-02-22T03:33:38;7.20;99.90
37642;DHT22;23486;51.956;5.888;2023-02-22T03:36:21;7.20;99.90
37642;DHT22;23486;51.956;5.888;2023-02-22T03:38:50;7.20;99.90
37642;DHT22;23486;51.956;5.888;2023-02-22T03:41:21;7.20;99.90
37642;DHT22;23486;51.956;5.888;2023-02-22T03:44:04;7.20;99.90
37642;DHT22;23486;51.956;5.888;2023-02-22T03:46:31;7.10;99.90
37642;DHT22;23486;51.956;5.888;2023-02-22T03:49:05;7.10;99.90
37642;DHT22;23486;51.956;5.888;2023-02-22T03:51:34;7.10;99.90
37642;DHT22;23486;51.956;5.888;2023-02-22T03:54:01;7.10;99.90
37642;DHT22;23486;51.956;5.888;2023-02-22T03:56:30;7.00;99.90
37642;DHT22;23486;51.956;5.888;2023-02-22T03:59:08;7.00;99.90
37642;DHT22;23486;51.956;5.888;2023-02-22T04:01:35;7.00;99.90
37642;DHT22;23486;51.956;5.888;2023-02-22T04:04:00;7.00;99.90
37642;DHT22;23486;51.956;5.888;2023-02-22T04:06:27;6.90;99.90
37642;DHT22;23486;51.956;5.888;2023-02-22T04:08:52;6.90;99.90
37642;DHT22;23486;51.956;5.888;2023-02-22T04:11:18;6.90;99.90
37642;DHT22;23486;51.956;5.888;2023-02-22T04:13:44;6.80;99.90
37642;DHT22;23486;51.956;5.888;2023-02-22T04:16:09;6.90;99.90
37642;DHT22;23486;51.956;5.888;2023-02-22T04:18:35;6.90;99.90
37642;DHT22;23486;51.956;5.888;2023-02-22T04:21:01;6.90;99.90
37642;DHT22;23486;51.956;5.888;2023-02-22T04:23:27;6.90;99.90
37642;DHT22;23486;51.956;5.888;2023-02-22T04:25:52;6.90;99.90
37642;DHT22;23486;51.956;5.888;2023-02-22T04:28:18;6.90;99.90
37642;DHT22;23486;51.956;5.888;2023-02-22T04:30:46;6.90;99.90
37642;DHT22;23486;51.956;5.888;2023-02-22T04:33:12;7.00;99.90
37642;DHT22;23486;51.956;5.888;2023-02-22T04:35:38;6.90;99.90
37642;DHT22;23486;51.956;5.888;2023-02-22T04:38:04;7.00;99.90
37642;DHT22;23486;51.956;5.888;2023-02-22T04:40:30;6.90;99.90
37642;DHT22;23486;51.956;5.888;2023-02-22T04:42:55;7.00;99.90
37642;DHT22;23486;51.956;5.888;2023-02-22T04:45:24;6.90;99.90
37642;DHT22;23486;51.956;5.888;2023-02-22T04:47:50;6.90;99.90
37642;DHT22;23486;51.956;5.888;2023-02-22T04:50:15;7.00;99.90
37642;DHT22;23486;51.956;5.888;2023-02-22T04:52:41;6.90;99.90
37642;DHT22;23486;51.956;5.888;2023-02-22T04:55:07;6.90;99.90
37642;DHT22;23486;51.956;5.888;2023-02-22T04:57:33;6.90;99.90
37642;DHT22;23486;51.956;5.888;2023-02-22T04:59:58;6.80;99.90
37642;DHT22;23486;51.956;5.888;2023-02-22T05:02:24;6.80;99.90
37642;DHT22;23486;51.956;5.888;2023-02-22T05:04:50;6.80;99.90
37642;DHT22;23486;51.956;5.888;2023-02-22T05:07:16;6.80;99.90
37642;DHT22;23486;51.956;5.888;2023-02-22T05:09:42;6.80;99.90
37642;DHT22;23486;51.956;5.888;2023-02-22T05:12:08;6.80;99.90
37642;DHT22;23486;51.956;5.888;2023-02-22T05:14:34;6.90;99.90
37642;DHT22;23486;51.956;5.888;2023-02-22T05:17:01;6.80;99.90
37642;DHT22;23486;51.956;5.888;2023-02-22T05:19:27;6.70;99.90
37642;DHT22;23486;51.956;5.888;2023-02-22T05:21:52;6.70;99.90
37642;DHT22;23486;51.956;5.888;2023-02-22T05:24:20;6.70;99.90
37642;DHT22;23486;51.956;5.888;2023-02-22T05:26:46;6.70;99.90
37642;DHT22;23486;51.956;5.888;2023-02-22T05:29:12;6.60;99.90
37642;DHT22;23486;51.956;5.888;2023-02-22T05:31:37;6.60;99.90
37642;DHT22;23486;51.956;5.888;2023-02-22T05:34:03;6.60;99.90
37642;DHT22;23486;51.956;5.888;2023-02-22T05:36:29;6.60;99.90
37642;DHT22;23486;51.956;5.888;2023-02-22T05:38:55;6.60;99.90
37642;DHT22;23486;51.956;5.888;2023-02-22T05:41:21;6.60;99.90
37642;DHT22;23486;51.956;5.888;2023-02-22T05:43:46;6.60;99.90
37642;DHT22;23486;51.956;5.888;2023-02-22T05:46:13;6.60;99.90
37642;DHT22;23486;51.956;5.888;2023-02-22T05:48:39;6.60;99.90
37642;DHT22;23486;51.956;5.888;2023-02-22T05:51:04;6.60;99.90
37642;DHT22;23486;51.956;5.888;2023-02-22T05:53:30;6.50;99.90
37642;DHT22;23486;51.956;5.888;2023-02-22T05:55:56;6.60;99.90
37642;DHT22;23486;51.956;5.888;2023-02-22T05:58:21;6.50;99.90
37642;DHT22;23486;51.956;5.888;2023-02-22T06:00:47;6.50;99.90
37642;DHT22;23486;51.956;5.888;2023-02-22T06:03:13;6.40;99.90
37642;DHT22;23486;51.956;5.888;2023-02-22T06:05:39;6.50;99.90
37642;DHT22;23486;51.956;5.888;2023-02-22T06:08:05;6.40;99.90
37642;DHT22;23486;51.956;5.888;2023-02-22T06:10:32;6.40;99.90
37642;DHT22;23486;51.956;5.888;2023-02-22T06:12:58;6.60;99.90
37642;DHT22;23486;51.956;5.888;2023-02-22T06:15:25;6.50;99.90
37642;DHT22;23486;51.956;5.888;2023-02-22T06:17:52;6.40;99.90
37642;DHT22;23486;51.956;5.888;2023-02-22T06:20:21;6.50;99.90
37642;DHT22;23486;51.956;5.888;2023-02-22T06:22:48;6.50;99.90
37642;DHT22;23486;51.956;5.888;2023-02-22T06:25:16;6.50;99.90
37642;DHT22;23486;51.956;5.888;2023-02-22T06:27:45;6.50;99.90
37642;DHT22;23486;51.956;5.888;2023-02-22T06:30:12;6.50;99.90
37642;DHT22;23486;51.956;5.888;2023-02-22T06:32:38;6.50;99.90
37642;DHT22;23486;51.956;5.888;2023-02-22T06:35:04;6.50;99.90
37642;DHT22;23486;51.956;5.888;2023-02-22T06:37:30;6.50;99.90
37642;DHT22;23486;51.956;5.888;2023-02-22T06:39:56;6.50;99.90
37642;DHT22;23486;51.956;5.888;2023-02-22T06:42:21;6.50;99.90
37642;DHT22;23486;51.956;5.888;2023-02-22T06:44:48;6.50;99.90
37642;DHT22;23486;51.956;5.888;2023-02-22T06:47:14;6.50;99.90
37642;DHT22;23486;51.956;5.888;2023-02-22T06:49:39;6.50;99.90
37642;DHT22;23486;51.956;5.888;2023-02-22T06:52:06;6.50;99.90
37642;DHT22;23486;51.956;5.888;2023-02-22T06:54:32;6.50;99.90
37642;DHT22;23486;51.956;5.888;2023-02-22T06:56:58;6.40;99.90
37642;DHT22;23486;51.956;5.888;2023-02-22T06:59:26;6.50;99.90
37642;DHT22;23486;51.956;5.888;2023-02-22T07:01:53;6.50;99.90
37642;DHT22;23486;51.956;5.888;2023-02-22T07:04:19;6.50;99.90
37642;DHT22;23486;51.956;5.888;2023-02-22T07:06:48;6.50;99.90
37642;DHT22;23486;51.956;5.888;2023-02-22T07:09:16;6.50;99.90
37642;DHT22;23486;51.956;5.888;2023-02-22T07:11:42;6.50;99.90
37642;DHT22;23486;51.956;5.888;2023-02-22T07:14:08;6.50;99.90
37642;DHT22;23486;51.956;5.888;2023-02-22T07:16:34;6.50;99.90
37642;DHT22;23486;51.956;5.888;2023-02-22T07:19:00;6.50;99.90
37642;DHT22;23486;51.956;5.888;2023-02-22T07:21:27;6.50;99.90
37642;DHT22;23486;51.956;5.888;2023-02-22T07:23:54;6.50;99.90
37642;DHT22;23486;51.956;5.888;2023-02-22T07:26:21;6.60;99.90
37642;DHT22;23486;51.956;5.888;2023-02-22T07:28:47;6.60;99.90
37642;DHT22;23486;51.956;5.888;2023-02-22T07:31:16;6.60;99.90
37642;DHT22;23486;51.956;5.888;2023-02-22T07:33:45;6.60;99.90
37642;DHT22;23486;51.956;5.888;2023-02-22T07:36:11;6.70;99.90
37642;DHT22;23486;51.956;5.888;2023-02-22T07:38:39;6.70;99.90
37642;DHT22;23486;51.956;5.888;2023-02-22T07:41:05;6.70;99.90
37642;DHT22;23486;51.956;5.888;2023-02-22T07:43:31;6.70;99.90
37642;DHT22;23486;51.956;5.888;2023-02-22T07:45:58;6.80;99.90
37642;DHT22;23486;51.956;5.888;2023-02-22T07:48:26;6.80;99.90
37642;DHT22;23486;51.956;5.888;2023-02-22T07:50:52;6.80;99.90
37642;DHT22;23486;51.956;5.888;2023-02-22T07:53:26;6.80;99.90
37642;DHT22;23486;51.956;5.888;2023-02-22T07:56:01;6.90;99.90
37642;DHT22;23486;51.956;5.888;2023-02-22T07:58:29;6.90;99.90
37642;DHT22;23486;51.956;5.888;2023-02-22T08:00:54;6.90;99.90
37642;DHT22;23486;51.956;5.888;2023-02-22T08:03:23;6.90;99.90
37642;DHT22;23486;51.956;5.888;2023-02-22T08:05:55;6.90;99.90
37642;DHT22;23486;51.956;5.888;2023-02-22T08:08:21;7.00;99.90
37642;DHT22;23486;51.956;5.888;2023-02-22T08:10:51;7.00;99.90
37642;DHT22;23486;51.956;5.888;2023-02-22T08:13:17;7.10;99.90
37642;DHT22;23486;51.956;5.888;2023-02-22T08:15:42;7.10;99.90
37642;DHT22;23486;51.956;5.888;2023-02-22T08:18:11;7.20;99.90
37642;DHT22;23486;51.956;5.888;2023-02-22T08:20:39;7.10;99.90
37642;DHT22;23486;51.956;5.888;2023-02-22T08:23:05;7.10;99.90
37642;DHT22;23486;51.956;5.888;2023-02-22T08:25:31;7.20;99.90
37642;DHT22;23486;51.956;5.888;2023-02-22T08:27:59;7.20;99.90
37642;DHT22;23486;51.956;5.888;2023-02-22T08:30:30;7.20;99.90
37642;DHT22;23486;51.956;5.888;2023-02-22T08:32:57;7.30;99.90
37642;DHT22;23486;51.956;5.888;2023-02-22T08:35:24;7.30;99.90
37642;DHT22;23486;51.956;5.888;2023-02-22T08:37:55;7.30;99.90
37642;DHT22;23486;51.956;5.888;2023-02-22T08:40:23;7.40;99.90
37642;DHT22;23486;51.956;5.888;2023-02-22T08:42:49;7.40;99.90
37642;DHT22;23486;51.956;5.888;2023-02-22T08:45:15;7.40;99.90
37642;DHT22;23486;51.956;5.888;2023-02-22T08:47:44;7.50;99.90
37642;DHT22;23486;51.956;5.888;2023-02-22T08:50:17;7.60;99.90
37642;DHT22;23486;51.956;5.888;2023-02-22T08:52:42;7.60;99.90
37642;DHT22;23486;51.956;5.888;2023-02-22T08:55:08;7.70;99.90
37642;DHT22;23486;51.956;5.888;2023-02-22T08:57:34;7.80;99.90
37642;DHT22;23486;51.956;5.888;2023-02-22T08:59:59;7.80;99.90
37642;DHT22;23486;51.956;5.888;2023-02-22T09:02:25;7.80;99.90
37642;DHT22;23486;51.956;5.888;2023-02-22T09:04:51;7.90;99.90
37642;DHT22;23486;51.956;5.888;2023-02-22T09:07:17;7.90;99.90
37642;DHT22;23486;51.956;5.888;2023-02-22T09:09:43;8.00;99.90
37642;DHT22;23486;51.956;5.888;2023-02-22T09:12:09;8.00;99.90
37642;DHT22;23486;51.956;5.888;2023-02-22T09:14:35;8.00;99.90
37642;DHT22;23486;51.956;5.888;2023-02-22T09:17:01;8.10;99.90
37642;DHT22;23486;51.956;5.888;2023-02-22T09:19:26;8.10;99.90
37642;DHT22;23486;51.956;5.888;2023-02-22T09:21:56;8.10;99.90
37642;DHT22;23486;51.956;5.888;2023-02-22T09:24:23;8.20;99.90
37642;DHT22;23486;51.956;5.888;2023-02-22T09:26:49;8.20;99.90
37642;DHT22;23486;51.956;5.888;2023-02-22T09:29:22;8.20;99.90
37642;DHT22;23486;51.956;5.888;2023-02-22T09:31:50;8.30;99.90
37642;DHT22;23486;51.956;5.888;2023-02-22T09:34:16;8.30;99.90
37642;DHT22;23486;51.956;5.888;2023-02-22T09:36:45;8.30;99.90
37642;DHT22;23486;51.956;5.888;2023-02-22T09:39:11;8.40;99.90
37642;DHT22;23486;51.956;5.888;2023-02-22T09:47:18;8.60;99.90
37642;DHT22;23486;51.956;5.888;2023-02-22T09:50:10;8.70;99.90
37642;DHT22;23486;51.956;5.888;2023-02-22T09:53:01;8.80;99.90
37642;DHT22;23486;51.956;5.888;2023-02-22T09:55:49;8.90;99.90
37642;DHT22;23486;51.956;5.888;2023-02-22T09:58:30;9.00;99.90
37642;DHT22;23486;51.956;5.888;2023-02-22T10:01:09;8.90;99.90
37642;DHT22;23486;51.956;5.888;2023-02-22T10:04:00;8.90;99.90
37642;DHT22;23486;51.956;5.888;2023-02-22T10:06:28;9.00;99.90
37642;DHT22;23486;51.956;5.888;2023-02-22T10:08:57;9.00;99.90
37642;DHT22;23486;51.956;5.888;2023-02-22T10:11:48;9.10;99.90
37642;DHT22;23486;51.956;5.888;2023-02-22T10:14:29;9.10;99.90
37642;DHT22;23486;51.956;5.888;2023-02-22T10:23:10;9.20;99.90
37642;DHT22;23486;51.956;5.888;2023-02-22T10:25:38;9.20;99.90
37642;DHT22;23486;51.956;5.888;2023-02-22T10:28:15;9.20;99.90
37642;DHT22;23486;51.956;5.888;2023-02-22T10:30:52;9.30;99.90
37642;DHT22;23486;51.956;5.888;2023-02-22T10:33:23;9.30;99.90
37642;DHT22;23486;51.956;5.888;2023-02-22T10:35:52;9.40;99.90
37642;DHT22;23486;51.956;5.888;2023-02-22T10:38:29;9.40;99.90
37642;DHT22;23486;51.956;5.888;2023-02-22T10:41:00;9.40;99.90
37642;DHT22;23486;51.956;5.888;2023-02-22T10:43:27;9.40;99.90
37642;DHT22;23486;51.956;5.888;2023-02-22T10:45:59;9.40;99.90
37642;DHT22;23486;51.956;5.888;2023-02-22T10:48:28;9.50;99.90
37642;DHT22;23486;51.956;5.888;2023-02-22T10:50:59;9.60;99.90
37642;DHT22;23486;51.956;5.888;2023-02-22T10:53:26;9.60;99.90
37642;DHT22;23486;51.956;5.888;2023-02-22T10:58:46;9.70;99.90
37642;DHT22;23486;51.956;5.888;2023-02-22T11:04:16;9.80;99.90
37642;DHT22;23486;51.956;5.888;2023-02-22T11:06:46;10.00;99.90
37642;DHT22;23486;51.956;5.888;2023-02-22T11:11:45;10.10;99.90
37642;DHT22;23486;51.956;5.888;2023-02-22T11:14:25;10.20;99.90
37642;DHT22;23486;51.956;5.888;2023-02-22T11:16:53;10.20;99.90
37642;DHT22;23486;51.956;5.888;2023-02-22T11:19:28;10.30;99.90
37642;DHT22;23486;51.956;5.888;2023-02-22T11:22:42;10.30;99.90
37642;DHT22;23486;51.956;5.888;2023-02-22T11:25:03;10.40;99.90
37642;DHT22;23486;51.956;5.888;2023-02-22T11:27:38;10.50;99.90
37642;DHT22;23486;51.956;5.888;2023-02-22T11:33:17;10.60;99.90
37642;DHT22;23486;51.956;5.888;2023-02-22T11:35:57;10.60;99.90
37642;DHT22;23486;51.956;5.888;2023-02-22T11:38:28;10.60;99.90
37642;DHT22;23486;51.956;5.888;2023-02-22T11:43:45;10.80;99.90
37642;DHT22;23486;51.956;5.888;2023-02-22T11:46:21;10.90;99.90
37642;DHT22;23486;51.956;5.888;2023-02-22T11:49:01;10.90;99.90
37642;DHT22;23486;51.956;5.888;2023-02-22T11:57:10;10.90;99.90
37642;DHT22;23486;51.956;5.888;2023-02-22T12:11:00;11.10;99.90
37642;DHT22;23486;51.956;5.888;2023-02-22T12:16:42;11.30;99.90
37642;DHT22;23486;51.956;5.888;2023-02-22T12:19:22;11.40;99.90
37642;DHT22;23486;51.956;5.888;2023-02-22T12:21:56;11.50;99.90
37642;DHT22;23486;51.956;5.888;2023-02-22T12:24:36;11.60;99.90
37642;DHT22;23486;51.956;5.888;2023-02-22T12:27:10;11.70;99.90
37642;DHT22;23486;51.956;5.888;2023-02-22T12:29:51;11.90;99.90
37642;DHT22;23486;51.956;5.888;2023-02-22T12:32:35;11.90;99.90
37642;DHT22;23486;51.956;5.888;2023-02-22T12:35:14;11.90;99.90
37642;DHT22;23486;51.956;5.888;2023-02-22T12:40:43;12.00;99.90
37642;DHT22;23486;51.956;5.888;2023-02-22T12:43:15;12.00;99.90
37642;DHT22;23486;51.956;5.888;2023-02-22T12:46:04;12.00;99.90
37642;DHT22;23486;51.956;5.888;2023-02-22T12:51:38;12.00;99.90
37642;DHT22;23486;51.956;5.888;2023-02-22T12:59:24;12.10;99.90
37642;DHT22;23486;51.956;5.888;2023-02-22T13:02:10;12.10;99.90
37642;DHT22;23486;51.956;5.888;2023-02-22T13:04:37;12.20;99.90
37642;DHT22;23486;51.956;5.888;2023-02-22T13:07:32;12.30;99.90
37642;DHT22;23486;51.956;5.888;2023-02-22T13:10:18;12.30;99.90
37642;DHT22;23486;51.956;5.888;2023-02-22T13:26:38;12.20;99.90
37642;DHT22;23486;51.956;5.888;2023-02-22T13:29:11;12.10;99.90
37642;DHT22;23486;51.956;5.888;2023-02-22T13:34:37;12.10;99.90
37642;DHT22;23486;51.956;5.888;2023-02-22T13:37:48;12.00;99.90
37642;DHT22;23486;51.956;5.888;2023-02-22T13:40:16;12.00;99.90
37642;DHT22;23486;51.956;5.888;2023-02-22T13:42:50;11.90;99.90
37642;DHT22;23486;51.956;5.888;2023-02-22T13:46:00;11.90;99.90
37642;DHT22;23486;51.956;5.888;2023-02-22T13:53:47;11.90;99.90
37642;DHT22;23486;51.956;5.888;2023-02-22T13:56:14;11.90;99.90
37642;DHT22;23486;51.956;5.888;2023-02-22T13:58:52;11.90;99.90
37642;DHT22;23486;51.956;5.888;2023-02-22T14:01:43;11.90;99.90
37642;DHT22;23486;51.956;5.888;2023-02-22T14:06:55;11.90;99.90
37642;DHT22;23486;51.956;5.888;2023-02-22T14:17:48;11.90;99.90
37642;DHT22;23486;51.956;5.888;2023-02-22T14:20:21;11.90;99.90
37642;DHT22;23486;51.956;5.888;2023-02-22T14:22:54;11.90;99.90
37642;DHT22;23486;51.956;5.888;2023-02-22T14:25:32;11.90;99.90
37642;DHT22;23486;51.956;5.888;2023-02-22T14:27:59;11.80;99.90
37642;DHT22;23486;51.956;5.888;2023-02-22T14:30:31;11.80;99.90
37642;DHT22;23486;51.956;5.888;2023-02-22T14:32:57;11.70;99.90
37642;DHT22;23486;51.956;5.888;2023-02-22T14:35:29;11.70;99.90
37642;DHT22;23486;51.956;5.888;2023-02-22T14:37:58;11.70;99.90
37642;DHT22;23486;51.956;5.888;2023-02-22T14:40:30;11.70;99.90
37642;DHT22;23486;51.956;5.888;2023-02-22T14:43:10;11.70;99.90
37642;DHT22;23486;51.956;5.888;2023-02-22T14:45:47;11.70;99.90
37642;DHT22;23486;51.956;5.888;2023-02-22T14:48:36;11.70;99.90
37642;DHT22;23486;51.956;5.888;2023-02-22T14:51:40;11.70;99.90
37642;DHT22;23486;51.956;5.888;2023-02-22T14:57:08;11.70;99.90
37642;DHT22;23486;51.956;5.888;2023-02-22T14:59:55;11.70;99.90
37642;DHT22;23486;51.956;5.888;2023-02-22T15:02:24;11.60;99.90
37642;DHT22;23486;51.956;5.888;2023-02-22T15:04:54;11.60;99.90
37642;DHT22;23486;51.956;5.888;2023-02-22T15:07:29;11.60;99.90
37642;DHT22;23486;51.956;5.888;2023-02-22T15:10:21;11.50;99.90
37642;DHT22;23486;51.956;5.888;2023-02-22T15:13:00;11.60;99.90
37642;DHT22;23486;51.956;5.888;2023-02-22T15:15:43;11.50;99.90
37642;DHT22;23486;51.956;5.888;2023-02-22T15:20:51;11.60;99.90
37642;DHT22;23486;51.956;5.888;2023-02-22T15:23:22;11.50;99.90
37642;DHT22;23486;51.956;5.888;2023-02-22T15:25:49;11.50;99.90
37642;DHT22;23486;51.956;5.888;2023-02-22T15:28:16;11.50;99.90
37642;DHT22;23486;51.956;5.888;2023-02-22T15:30:42;11.40;99.90
37642;DHT22;23486;51.956;5.888;2023-02-22T15:33:15;11.40;99.90
37642;DHT22;23486;51.956;5.888;2023-02-22T15:35:41;11.40;99.90
37642;DHT22;23486;51.956;5.888;2023-02-22T15:38:16;11.30;99.90
37642;DHT22;23486;51.956;5.888;2023-02-22T15:40:42;11.30;99.90
37642;DHT22;23486;51.956;5.888;2023-02-22T15:43:23;11.20;99.90
37642;DHT22;23486;51.956;5.888;2023-02-22T15:45:52;11.20;99.90
37642;DHT22;23486;51.956;5.888;2023-02-22T15:48:21;11.10;99.90
37642;DHT22;23486;51.956;5.888;2023-02-22T15:51:00;11.20;99.90
37642;DHT22;23486;51.956;5.888;2023-02-22T15:53:46;11.10;99.90
37642;DHT22;23486;51.956;5.888;2023-02-22T15:56:23;11.00;99.90
37642;DHT22;23486;51.956;5.888;2023-02-22T15:58:51;11.00;99.90
37642;DHT22;23486;51.956;5.888;2023-02-22T16:01:23;11.00;99.90
37642;DHT22;23486;51.956;5.888;2023-02-22T16:03:57;11.10;99.90
37642;DHT22;23486;51.956;5.888;2023-02-22T16:06:37;10.90;99.90
37642;DHT22;23486;51.956;5.888;2023-02-22T16:09:13;11.00;99.90
37642;DHT22;23486;51.956;5.888;2023-02-22T16:11:42;11.00;99.90
37642;DHT22;23486;51.956;5.888;2023-02-22T16:14:28;11.00;99.90
37642;DHT22;23486;51.956;5.888;2023-02-22T16:17:34;11.00;99.90
37642;DHT22;23486;51.956;5.888;2023-02-22T16:22:36;10.90;99.90
37642;DHT22;23486;51.956;5.888;2023-02-22T16:27:53;10.90;99.90
37642;DHT22;23486;51.956;5.888;2023-02-22T16:32:55;10.80;99.90
37642;DHT22;23486;51.956;5.888;2023-02-22T16:35:23;10.80;99.90
37642;DHT22;23486;51.956;5.888;2023-02-22T16:38:04;10.80;99.90
37642;DHT22;23486;51.956;5.888;2023-02-22T16:40:48;10.70;99.90
37642;DHT22;23486;51.956;5.888;2023-02-22T16:43:21;10.70;99.90
37642;DHT22;23486;51.956;5.888;2023-02-22T16:45:48;10.60;99.90
37642;DHT22;23486;51.956;5.888;2023-02-22T16:48:21;10.60;99.90
37642;DHT22;23486;51.956;5.888;2023-02-22T16:50:48;10.60;99.90
37642;DHT22;23486;51.956;5.888;2023-02-22T16:53:16;10.60;99.90
37642;DHT22;23486;51.956;5.888;2023-02-22T16:55:44;10.50;99.90
37642;DHT22;23486;51.956;5.888;2023-02-22T16:58:13;10.50;99.90
37642;DHT22;23486;51.956;5.888;2023-02-22T17:00:39;10.50;99.90
37642;DHT22;23486;51.956;5.888;2023-02-22T17:03:13;10.50;99.90
37642;DHT22;23486;51.956;5.888;2023-02-22T17:05:38;10.40;99.90
37642;DHT22;23486;51.956;5.888;2023-02-22T17:08:04;10.40;99.90
37642;DHT22;23486;51.956;5.888;2023-02-22T17:10:33;10.40;99.90
37642;DHT22;23486;51.956;5.888;2023-02-22T17:12:59;10.40;99.90
37642;DHT22;23486;51.956;5.888;2023-02-22T17:15:30;10.30;99.90
37642;DHT22;23486;51.956;5.888;2023-02-22T17:18:11;10.40;99.90
37642;DHT22;23486;51.956;5.888;2023-02-22T17:20:41;10.30;99.90
37642;DHT22;23486;51.956;5.888;2023-02-22T17:23:08;10.30;99.90
37642;DHT22;23486;51.956;5.888;2023-02-22T17:25:42;10.20;99.90
37642;DHT22;23486;51.956;5.888;2023-02-22T17:28:09;10.20;99.90
37642;DHT22;23486;51.956;5.888;2023-02-22T17:30:35;10.20;99.90
37642;DHT22;23486;51.956;5.888;2023-02-22T17:33:06;10.10;99.90
37642;DHT22;23486;51.956;5.888;2023-02-22T17:35:36;10.10;99.90
37642;DHT22;23486;51.956;5.888;2023-02-22T17:38:05;10.10;99.90
37642;DHT22;23486;51.956;5.888;2023-02-22T17:40:35;10.10;99.90
37642;DHT22;23486;51.956;5.888;2023-02-22T17:43:02;10.20;99.90
37642;DHT22;23486;51.956;5.888;2023-02-22T17:45:29;10.10;99.90
37642;DHT22;23486;51.956;5.888;2023-02-22T17:47:55;10.10;99.90
37642;DHT22;23486;51.956;5.888;2023-02-22T17:50:23;10.00;99.90
37642;DHT22;23486;51.956;5.888;2023-02-22T17:52:50;9.90;99.90
37642;DHT22;23486;51.956;5.888;2023-02-22T17:55:17;10.00;99.90
37642;DHT22;23486;51.956;5.888;2023-02-22T17:57:44;10.00;99.90
37642;DHT22;23486;51.956;5.888;2023-02-22T18:00:14;9.90;99.90
37642;DHT22;23486;51.956;5.888;2023-02-22T18:02:42;9.90;99.90
37642;DHT22;23486;51.956;5.888;2023-02-22T18:05:12;10.00;99.90
37642;DHT22;23486;51.956;5.888;2023-02-22T18:07:41;9.90;99.90
37642;DHT22;23486;51.956;5.888;2023-02-22T18:10:06;9.90;99.90